PAED METAR and TAF weather

Enter ICAO airport designator
Station Type Date Time Source
PAED METAR 2020/12/05 05:16 UTC NOAA

PAED 050516Z AUTO 00000KT 10SM OVC008 M10/M12 A2979 RMK AO2 CIG 007 RWY24 SLP087 $


Station Type Date Time Source
PAED Decoded METAR 2020/12/05 05:16 UTC NOAA

Anchorage, Elmendorf Air Force Base, AK, United States (PAED) 61-15-11N 149-47-38W 59M
Dec 05, 2020 - 12:16 AM EST / 2020.12.05 0516 UTC
Wind: Calm:0
Visibility: 10 mile(s):0
Sky conditions: overcast
Temperature: 14 F (-10 C)
Dew Point: 10 F (-12 C)
Relative Humidity: 85%
Pressure (altimeter): 29.79 in. Hg (1008 hPa)
ob: PAED 050516Z AUTO 00000KT 10SM OVC008 M10/M12 A2979 RMK AO2 CIG 007 RWY24 SLP087
cycle: 5

Station Type Date Time Source
PAED TAF 2020/12/05 03:17 UTC NOAA

TAF PAED 050300Z 0503/0609 VRB06KT 9999 BKN006 OVC010 QNH2977INS
BECMG 0520/0521 VRB06KT 9999 SCT010 SCT040 QNH2961INS TXM11/0503Z TNM18/0517Z

Example: see airport list